createdAt,value
2023-01-13T00:00:16.102Z,12.80
2023-01-13T00:03:03.437Z,14.00
2023-01-13T00:05:30.840Z,17.95
2023-01-13T00:07:57.764Z,15.18
2023-01-13T00:10:25.009Z,14.52
2023-01-13T00:12:53.551Z,15.52
2023-01-13T00:15:20.897Z,15.30
2023-01-13T00:17:48.853Z,17.55
2023-01-13T00:20:16.538Z,15.45
2023-01-13T00:22:43.626Z,15.68
2023-01-13T00:25:11.032Z,16.70
2023-01-13T00:27:38.207Z,17.60
2023-01-13T00:30:07.583Z,19.33
2023-01-13T00:32:34.581Z,18.90
2023-01-13T00:35:01.980Z,19.00
2023-01-13T00:37:29.125Z,18.65
2023-01-13T00:39:57.880Z,17.83
2023-01-13T00:42:43.181Z,16.55
2023-01-13T00:45:10.842Z,16.80
2023-01-13T00:47:37.964Z,17.35
2023-01-13T00:50:05.570Z,14.57
2023-01-13T00:52:33.676Z,16.02
2023-01-13T00:55:01.020Z,14.43
2023-01-13T00:57:28.061Z,19.25
2023-01-13T00:59:55.581Z,16.30
2023-01-13T01:02:22.543Z,13.30
2023-01-13T01:04:50.023Z,12.82
2023-01-13T01:07:17.030Z,13.65
2023-01-13T01:09:44.279Z,12.65
2023-01-13T01:12:11.532Z,18.50
2023-01-13T01:14:38.781Z,15.90
2023-01-13T01:17:05.677Z,13.18
2023-01-13T01:19:32.978Z,17.67
2023-01-13T01:21:59.913Z,13.25
2023-01-13T01:24:27.263Z,14.82
2023-01-13T01:26:54.161Z,13.35
2023-01-13T01:29:21.302Z,14.40
2023-01-13T01:31:48.259Z,15.88
2023-01-13T01:34:15.459Z,15.07
2023-01-13T01:36:42.380Z,15.05
2023-01-13T01:39:09.986Z,13.18
2023-01-13T01:41:37.371Z,16.95
2023-01-13T01:44:27.232Z,15.32
2023-01-13T01:46:56.480Z,13.20
2023-01-13T01:49:32.162Z,14.35
2023-01-13T01:52:13.301Z,14.32
2023-01-13T01:55:24.102Z,15.32
2023-01-13T01:57:57.266Z,14.23
2023-01-13T02:00:27.051Z,12.75
2023-01-13T02:02:54.778Z,15.95
2023-01-13T02:05:22.319Z,13.35
2023-01-13T02:07:52.339Z,17.77
2023-01-13T02:10:23.454Z,13.77
2023-01-13T02:12:53.057Z,19.20
2023-01-13T02:15:32.774Z,16.35
2023-01-13T02:18:11.799Z,17.10
2023-01-13T02:20:51.078Z,10.63
2023-01-13T02:24:03.823Z,15.85
2023-01-13T02:26:49.546Z,16.90
2023-01-13T02:30:12.231Z,13.20
2023-01-13T02:32:51.750Z,12.23
2023-01-13T02:35:27.509Z,11.85
2023-01-13T02:37:56.882Z,11.32
2023-01-13T02:40:28.687Z,15.75
2023-01-13T02:43:31.076Z,13.45
2023-01-13T02:46:04.658Z,12.00
2023-01-13T02:48:33.117Z,13.80
2023-01-13T02:51:06.746Z,12.35
2023-01-13T02:53:43.453Z,15.77
2023-01-13T02:56:13.428Z,12.23
2023-01-13T02:58:43.683Z,17.60
2023-01-13T03:01:10.827Z,13.50
2023-01-13T03:03:38.190Z,12.88
2023-01-13T03:06:30.783Z,11.15
2023-01-13T03:09:30.612Z,16.10
2023-01-13T03:12:08.466Z,13.13
2023-01-13T03:14:44.538Z,11.07
2023-01-13T03:17:11.383Z,13.48
2023-01-13T03:19:56.593Z,11.95
2023-01-13T03:22:33.572Z,13.73
2023-01-13T03:25:11.943Z,14.23
2023-01-13T03:27:45.382Z,17.85
2023-01-13T03:30:21.234Z,12.45
2023-01-13T03:32:57.084Z,14.80
2023-01-13T03:35:31.194Z,15.95
2023-01-13T03:38:22.434Z,15.98
2023-01-13T03:40:54.905Z,14.10
2023-01-13T03:43:45.592Z,13.10
2023-01-13T03:46:21.766Z,15.13
2023-01-13T03:48:53.695Z,13.13
2023-01-13T03:51:24.020Z,12.43
2023-01-13T03:53:57.374Z,12.20
2023-01-13T03:56:28.084Z,12.70
2023-01-13T03:58:57.600Z,13.60
2023-01-13T04:01:29.297Z,15.20
2023-01-13T04:04:32.942Z,13.05
2023-01-13T04:07:08.913Z,13.27
2023-01-13T04:09:52.740Z,14.52
2023-01-13T04:12:52.348Z,13.05
2023-01-13T04:15:22.272Z,11.98
2023-01-13T04:17:50.786Z,14.02
2023-01-13T04:20:17.955Z,13.32
2023-01-13T04:22:45.169Z,14.50
2023-01-13T04:25:12.039Z,16.45
2023-01-13T04:27:39.323Z,15.63
2023-01-13T04:30:07.043Z,16.05
2023-01-13T04:32:34.700Z,15.13
2023-01-13T04:35:01.663Z,15.45
2023-01-13T04:37:28.874Z,12.30
2023-01-13T04:39:55.756Z,17.13
2023-01-13T04:42:22.909Z,13.00
2023-01-13T04:44:49.793Z,14.05
2023-01-13T04:47:17.064Z,13.88
2023-01-13T04:49:43.951Z,14.07
2023-01-13T04:52:11.085Z,17.38
2023-01-13T04:54:38.042Z,14.90
2023-01-13T04:57:05.268Z,13.93
2023-01-13T04:59:33.950Z,13.05
2023-01-13T05:02:02.287Z,18.13
2023-01-13T05:04:29.185Z,13.23
2023-01-13T05:06:56.774Z,13.90
2023-01-13T05:09:23.663Z,13.77
2023-01-13T05:12:09.551Z,17.90
2023-01-13T05:14:55.030Z,12.50
2023-01-13T05:17:25.097Z,15.20
2023-01-13T05:19:52.030Z,12.75
2023-01-13T05:22:37.910Z,12.60
2023-01-13T05:25:24.480Z,12.98
2023-01-13T05:27:54.356Z,14.00
2023-01-13T05:30:23.693Z,17.48
2023-01-13T05:32:51.022Z,13.93
2023-01-13T05:35:18.375Z,13.10
2023-01-13T05:37:46.522Z,18.98
2023-01-13T05:40:34.477Z,11.52
2023-01-13T05:43:22.139Z,11.50
2023-01-13T05:46:07.987Z,8.45
2023-01-13T05:48:41.386Z,13.70
2023-01-13T05:51:10.684Z,13.00
2023-01-13T05:53:38.115Z,9.27
2023-01-13T05:56:06.190Z,10.60
2023-01-13T05:58:34.404Z,14.05
2023-01-13T06:01:03.784Z,11.23
2023-01-13T06:03:31.839Z,14.85
2023-01-13T06:06:01.760Z,11.57
2023-01-13T06:08:29.755Z,12.55
2023-01-13T06:10:56.699Z,11.20
2023-01-13T06:13:25.434Z,15.35
2023-01-13T06:15:56.816Z,14.45
2023-01-13T06:20:51.116Z,14.10
2023-01-13T06:23:18.358Z,16.98
2023-01-13T06:26:25.112Z,14.35
2023-01-13T06:28:52.413Z,15.20
2023-01-13T06:31:20.079Z,14.98
2023-01-13T06:33:50.875Z,12.07
2023-01-13T06:36:35.419Z,17.85
2023-01-13T06:39:04.158Z,13.48
2023-01-13T06:41:51.520Z,15.45
2023-01-13T06:44:20.474Z,12.38
2023-01-13T06:46:47.810Z,10.18
2023-01-13T06:49:15.056Z,12.57
2023-01-13T06:51:42.804Z,10.50
2023-01-13T06:54:09.950Z,11.90
2023-01-13T06:56:36.845Z,12.52
2023-01-13T06:59:04.089Z,11.25
2023-01-13T07:01:31.140Z,10.00
2023-01-13T07:03:58.403Z,13.00
2023-01-13T07:06:25.335Z,10.30
2023-01-13T07:08:52.532Z,12.05
2023-01-13T07:11:19.367Z,13.07
2023-01-13T07:14:05.351Z,9.95
2023-01-13T07:16:32.417Z,13.48
2023-01-13T07:18:59.748Z,15.15
2023-01-13T07:21:26.747Z,11.65
2023-01-13T07:23:53.959Z,16.35
2023-01-13T07:26:21.046Z,12.55
2023-01-13T07:28:48.468Z,12.93
2023-01-13T07:31:21.319Z,14.02
2023-01-13T07:33:48.900Z,12.13
2023-01-13T07:36:16.061Z,13.35
2023-01-13T07:38:44.748Z,10.40
2023-01-13T07:41:32.208Z,13.02
2023-01-13T07:44:00.437Z,10.38
2023-01-13T07:46:27.536Z,11.00
2023-01-13T07:48:54.677Z,9.40
2023-01-13T07:51:21.567Z,9.32
2023-01-13T07:53:49.344Z,10.05
2023-01-13T07:56:16.306Z,17.50
2023-01-13T07:58:44.942Z,11.93
2023-01-13T08:01:14.063Z,11.27
2023-01-13T08:03:41.523Z,9.02
2023-01-13T08:06:09.761Z,11.15
2023-01-13T08:08:38.012Z,13.07
2023-01-13T08:11:07.212Z,11.93
2023-01-13T08:13:34.674Z,11.77
2023-01-13T08:16:07.011Z,15.77
2023-01-13T08:18:35.748Z,11.80
2023-01-13T08:21:05.540Z,8.85
2023-01-13T08:23:32.795Z,11.02
2023-01-13T08:26:02.268Z,11.00
2023-01-13T08:28:30.220Z,8.38
2023-01-13T08:31:02.018Z,15.68
2023-01-13T08:33:29.896Z,11.50
2023-01-13T08:35:57.095Z,10.25
2023-01-13T08:38:25.788Z,12.43
2023-01-13T08:40:53.053Z,10.85
2023-01-13T08:43:20.501Z,13.90
2023-01-13T08:45:56.788Z,11.80
2023-01-13T08:48:24.415Z,10.50
2023-01-13T08:50:51.431Z,18.33
2023-01-13T08:53:19.053Z,13.73
2023-01-13T08:55:46.532Z,6.70
2023-01-13T08:58:15.998Z,9.05
2023-01-13T09:00:44.082Z,13.32
2023-01-13T09:03:11.741Z,7.97
2023-01-13T09:05:38.690Z,15.90
2023-01-13T09:08:06.039Z,10.75
2023-01-13T09:10:33.732Z,11.73
2023-01-13T09:13:13.424Z,9.88
2023-01-13T09:15:49.716Z,10.38
2023-01-13T09:18:17.352Z,9.95
2023-01-13T09:20:44.816Z,12.68
2023-01-13T09:23:12.013Z,10.30
2023-01-13T09:25:39.783Z,8.48
2023-01-13T09:28:08.447Z,11.57
2023-01-13T09:30:37.319Z,14.10
2023-01-13T09:33:23.244Z,13.27
2023-01-13T09:35:50.208Z,12.98
2023-01-13T09:38:17.499Z,12.10
2023-01-13T09:40:48.964Z,9.35
2023-01-13T09:43:53.984Z,8.30
2023-01-13T09:46:44.136Z,9.02
2023-01-13T09:49:20.958Z,9.65
2023-01-13T09:52:09.238Z,10.75
2023-01-13T09:54:49.771Z,10.48
2023-01-13T09:57:20.508Z,8.73
2023-01-13T09:59:48.753Z,8.40
2023-01-13T10:02:51.252Z,8.98
2023-01-13T10:05:43.524Z,7.43
2023-01-13T10:10:51.017Z,8.18
2023-01-13T10:13:26.976Z,8.73
2023-01-13T10:16:19.115Z,10.30
2023-01-13T10:22:10.705Z,8.73
2023-01-13T10:24:53.965Z,8.52
2023-01-13T10:27:36.846Z,9.10
2023-01-13T10:30:33.999Z,12.07
2023-01-13T10:33:09.543Z,8.55
2023-01-13T10:35:51.789Z,8.73
2023-01-13T10:38:25.303Z,12.38
2023-01-13T10:40:54.891Z,8.35
2023-01-13T10:43:23.122Z,9.55
2023-01-13T10:46:06.309Z,8.65
2023-01-13T10:48:39.483Z,9.68
2023-01-13T10:51:16.569Z,9.60
2023-01-13T10:54:02.763Z,8.32
2023-01-13T10:56:33.049Z,9.52
2023-01-13T10:59:23.033Z,12.30
2023-01-13T11:02:00.876Z,8.90
2023-01-13T11:04:44.040Z,11.93
2023-01-13T11:07:26.770Z,8.02
2023-01-13T11:10:28.659Z,8.63
2023-01-13T11:13:01.389Z,8.85
2023-01-13T11:15:48.907Z,11.20
2023-01-13T11:18:26.900Z,9.55
2023-01-13T11:20:58.590Z,8.43
2023-01-13T11:23:40.690Z,9.45
2023-01-13T11:26:41.015Z,10.13
2023-01-13T11:29:38.357Z,10.00
2023-01-13T11:32:28.119Z,10.25
2023-01-13T11:35:02.068Z,9.95
2023-01-13T11:37:33.353Z,10.13
2023-01-13T11:40:25.919Z,11.13
2023-01-13T11:43:02.041Z,11.32
2023-01-13T11:45:43.932Z,9.85
2023-01-13T11:48:17.800Z,7.38
2023-01-13T11:50:53.963Z,12.27
2023-01-13T11:53:28.338Z,10.63
2023-01-13T11:56:27.718Z,11.13
2023-01-13T11:59:10.956Z,6.47
2023-01-13T12:01:53.652Z,12.43
2023-01-13T12:04:29.647Z,11.57
2023-01-13T12:07:23.175Z,8.35
2023-01-13T12:10:16.876Z,14.80
2023-01-13T12:12:43.981Z,10.68
2023-01-13T12:15:35.949Z,10.48
2023-01-13T12:18:21.422Z,10.85
2023-01-13T12:21:07.408Z,10.90
2023-01-13T12:23:47.026Z,17.42
2023-01-13T12:26:17.144Z,11.82
2023-01-13T12:28:53.735Z,11.45
2023-01-13T12:31:22.367Z,9.90
2023-01-13T12:34:40.509Z,10.05
2023-01-13T12:37:23.907Z,14.30
2023-01-13T12:40:12.774Z,8.20
2023-01-13T12:43:11.233Z,16.00
2023-01-13T12:45:38.676Z,11.13
2023-01-13T12:48:06.348Z,12.95
2023-01-13T12:50:37.655Z,10.82
2023-01-13T12:53:32.456Z,13.77
2023-01-13T12:56:21.561Z,9.63
2023-01-13T12:58:48.905Z,9.13
2023-01-13T13:01:16.367Z,11.25
2023-01-13T13:04:09.487Z,10.82
2023-01-13T13:06:39.565Z,8.23
2023-01-13T13:09:21.715Z,14.57
2023-01-13T13:11:58.616Z,10.18
2023-01-13T13:14:37.895Z,9.90
2023-01-13T13:17:29.368Z,10.30
2023-01-13T13:19:57.855Z,8.05
2023-01-13T13:22:27.813Z,9.80
2023-01-13T13:24:54.964Z,10.07
2023-01-13T13:27:21.762Z,10.23
2023-01-13T13:30:04.765Z,12.10
2023-01-13T13:32:50.949Z,10.77
2023-01-13T13:35:43.334Z,10.52
2023-01-13T13:38:34.800Z,9.65
2023-01-13T13:41:32.232Z,11.90
2023-01-13T13:44:21.808Z,14.02
2023-01-13T13:46:49.852Z,12.73
2023-01-13T13:49:22.460Z,9.93
2023-01-13T13:52:07.178Z,17.05
2023-01-13T13:54:35.399Z,10.13
2023-01-13T13:57:02.708Z,14.02
2023-01-13T13:59:30.922Z,10.80
2023-01-13T14:02:02.117Z,9.43
2023-01-13T14:04:37.224Z,10.90
2023-01-13T14:07:22.072Z,13.88
2023-01-13T14:09:54.323Z,11.75
2023-01-13T14:12:24.037Z,10.57
2023-01-13T14:14:51.835Z,12.00
2023-01-13T14:17:25.832Z,11.82
2023-01-13T14:20:01.552Z,9.25
2023-01-13T14:22:29.072Z,13.57
2023-01-13T14:24:57.790Z,13.20
2023-01-13T14:27:28.419Z,16.63
2023-01-13T14:29:58.312Z,9.60
2023-01-13T14:32:33.624Z,11.23
2023-01-13T14:35:00.686Z,25.00
2023-01-13T14:37:39.755Z,8.10
2023-01-13T14:40:07.311Z,9.68
2023-01-13T14:42:35.613Z,17.70
2023-01-13T14:45:03.381Z,10.68
2023-01-13T14:47:34.102Z,11.65
2023-01-13T14:50:16.389Z,10.52
2023-01-13T14:52:49.264Z,10.52
2023-01-13T14:55:41.620Z,9.77
2023-01-13T14:58:28.657Z,15.23
2023-01-13T15:01:36.329Z,13.00
2023-01-13T15:04:27.049Z,10.15
2023-01-13T15:06:57.063Z,12.43
2023-01-13T15:09:28.240Z,17.30
2023-01-13T15:11:58.792Z,12.35
2023-01-13T15:14:32.580Z,9.98
2023-01-13T15:16:59.731Z,12.98
2023-01-13T15:19:26.922Z,12.73
2023-01-13T15:21:53.845Z,13.35
2023-01-13T15:24:21.174Z,16.40
2023-01-13T15:26:48.305Z,13.05
2023-01-13T15:29:15.841Z,15.13
2023-01-13T15:31:42.797Z,12.82
2023-01-13T15:34:10.076Z,15.27
2023-01-13T15:36:37.933Z,14.60
2023-01-13T15:39:06.931Z,15.13
2023-01-13T15:41:52.535Z,12.60
2023-01-13T15:44:38.470Z,12.88
2023-01-13T15:47:08.802Z,14.02
2023-01-13T15:49:44.030Z,14.30
2023-01-13T15:52:23.158Z,14.57
2023-01-13T15:54:51.708Z,14.10
2023-01-13T15:57:41.496Z,12.77
2023-01-13T16:00:16.144Z,15.05
2023-01-13T16:02:44.505Z,11.35
2023-01-13T16:05:12.496Z,16.58
2023-01-13T16:07:40.097Z,14.15
2023-01-13T16:10:17.333Z,15.93
2023-01-13T16:12:44.500Z,12.43
2023-01-13T16:15:17.219Z,12.52
2023-01-13T16:17:46.381Z,13.43
2023-01-13T16:20:18.107Z,16.15
2023-01-13T16:22:45.504Z,14.32
2023-01-13T16:25:21.781Z,15.23
2023-01-13T16:27:49.601Z,15.70
2023-01-13T16:30:25.247Z,15.65
2023-01-13T16:32:55.018Z,13.82
2023-01-13T16:35:23.721Z,17.85
2023-01-13T16:37:52.175Z,16.40
2023-01-13T16:40:26.613Z,16.83
2023-01-13T16:42:53.525Z,14.07
2023-01-13T16:45:20.656Z,15.60
2023-01-13T16:47:47.885Z,19.45
2023-01-13T16:50:41.059Z,16.70
2023-01-13T16:53:12.171Z,16.88
2023-01-13T16:55:41.224Z,15.40
2023-01-13T16:58:17.863Z,17.02
2023-01-13T17:00:47.014Z,16.70
2023-01-13T17:03:15.355Z,14.95
2023-01-13T17:05:44.442Z,15.13
2023-01-13T17:08:17.855Z,25.98
2023-01-13T17:10:46.358Z,15.32
2023-01-13T17:13:16.937Z,14.43
2023-01-13T17:15:45.880Z,15.70
2023-01-13T17:18:13.625Z,18.65
2023-01-13T17:20:41.160Z,17.58
2023-01-13T17:23:08.199Z,16.98
2023-01-13T17:25:35.527Z,15.48
2023-01-13T17:28:02.709Z,19.25
2023-01-13T17:30:29.934Z,17.65
2023-01-13T17:32:56.957Z,21.65
2023-01-13T17:35:25.234Z,20.35
2023-01-13T17:37:53.393Z,18.63
2023-01-13T17:40:20.875Z,17.63
2023-01-13T17:42:47.859Z,18.40
2023-01-13T17:45:16.370Z,16.58
2023-01-13T17:47:43.717Z,20.88
2023-01-13T17:50:11.189Z,19.65
2023-01-13T17:52:38.163Z,16.48
2023-01-13T17:55:05.743Z,15.38
2023-01-13T17:57:32.671Z,23.63
2023-01-13T17:59:59.884Z,17.67
2023-01-13T18:02:26.941Z,17.20
2023-01-13T18:04:54.193Z,18.95
2023-01-13T18:07:21.095Z,21.33
2023-01-13T18:09:48.481Z,19.80
2023-01-13T18:12:15.436Z,20.27
2023-01-13T18:14:42.637Z,17.65
2023-01-13T18:17:09.581Z,20.25
2023-01-13T18:19:55.220Z,19.60
2023-01-13T18:22:41.090Z,21.45
2023-01-13T18:25:31.017Z,20.65
2023-01-13T18:28:01.204Z,24.30
2023-01-13T18:30:28.497Z,18.35
2023-01-13T18:32:56.031Z,20.25
2023-01-13T18:35:23.464Z,22.25
2023-01-13T18:37:52.097Z,22.52
2023-01-13T18:40:19.328Z,20.20
2023-01-13T18:42:52.151Z,21.15
2023-01-13T18:45:23.229Z,23.23
2023-01-13T18:47:50.895Z,20.73
2023-01-13T18:50:18.860Z,26.92
2023-01-13T18:52:46.379Z,23.30
2023-01-13T18:55:13.548Z,21.65
2023-01-13T18:57:40.698Z,23.58
2023-01-13T19:00:09.977Z,27.15
2023-01-13T19:02:37.473Z,26.52
2023-01-13T19:05:05.359Z,26.83
2023-01-13T19:07:34.901Z,22.63
2023-01-13T19:10:04.439Z,24.95
2023-01-13T19:12:33.696Z,22.65
2023-01-13T19:15:02.140Z,21.75
2023-01-13T19:17:33.855Z,28.58
2023-01-13T19:20:01.575Z,24.42
2023-01-13T19:22:35.671Z,22.60
2023-01-13T19:25:04.423Z,25.73
2023-01-13T19:27:31.719Z,24.08
2023-01-13T19:30:00.681Z,21.15
2023-01-13T19:32:28.766Z,23.92
2023-01-13T19:34:59.348Z,21.60
2023-01-13T19:37:34.273Z,19.70
2023-01-13T19:40:01.649Z,24.30
2023-01-13T19:42:47.317Z,19.10
2023-01-13T19:45:29.396Z,19.85
2023-01-13T19:47:57.797Z,20.05
2023-01-13T19:50:24.995Z,20.17
2023-01-13T19:52:52.000Z,17.98
2023-01-13T19:55:19.858Z,19.35
2023-01-13T19:57:47.261Z,17.35
2023-01-13T20:00:20.306Z,19.20
2023-01-13T20:02:49.185Z,16.35
2023-01-13T20:05:21.239Z,17.80
2023-01-13T20:07:50.012Z,15.25
2023-01-13T20:10:18.923Z,19.48
2023-01-13T20:12:45.880Z,13.43
2023-01-13T20:15:13.794Z,15.20
2023-01-13T20:17:41.655Z,16.60
2023-01-13T20:20:10.701Z,15.80
2023-01-13T20:22:39.319Z,15.02
2023-01-13T20:25:07.757Z,13.10
2023-01-13T20:27:34.982Z,16.40
2023-01-13T20:30:02.324Z,12.02
2023-01-13T20:32:29.195Z,10.95
2023-01-13T20:34:56.324Z,9.90
2023-01-13T20:37:23.272Z,13.82
2023-01-13T20:39:50.639Z,13.45
2023-01-13T20:42:39.806Z,11.95
2023-01-13T20:45:07.466Z,15.05
2023-01-13T20:47:34.622Z,11.75
2023-01-13T20:50:01.821Z,12.60
2023-01-13T20:52:28.813Z,11.65
2023-01-13T20:54:55.946Z,12.60
2023-01-13T20:57:22.826Z,11.98
2023-01-13T20:59:50.006Z,11.90
2023-01-13T21:02:17.820Z,12.32
2023-01-13T21:04:45.298Z,11.60
2023-01-13T21:07:12.221Z,13.85
2023-01-13T21:09:39.878Z,10.77
2023-01-13T21:12:26.208Z,10.85
2023-01-13T21:15:12.215Z,8.43
2023-01-13T21:17:57.815Z,11.38
2023-01-13T21:20:25.094Z,9.20
2023-01-13T21:22:51.992Z,10.32
2023-01-13T21:25:19.761Z,9.05
2023-01-13T21:27:46.654Z,8.57
2023-01-13T21:30:15.477Z,6.60
2023-01-13T21:32:44.217Z,8.68
2023-01-13T21:35:13.352Z,13.60
2023-01-13T21:37:42.002Z,11.27
2023-01-13T21:40:12.254Z,8.38
2023-01-13T21:42:57.570Z,8.20
2023-01-13T21:45:43.310Z,10.65
2023-01-13T21:48:10.325Z,8.90
2023-01-13T21:50:38.585Z,9.07
2023-01-13T21:53:07.882Z,9.90
2023-01-13T21:55:36.825Z,12.70
2023-01-13T21:58:11.030Z,9.85
2023-01-13T22:00:39.586Z,7.60
2023-01-13T22:03:08.051Z,12.80
2023-01-13T22:05:35.665Z,9.57
2023-01-13T22:08:03.014Z,8.80
2023-01-13T22:10:31.021Z,9.85
2023-01-13T22:13:00.384Z,8.52
2023-01-13T22:15:29.164Z,10.82
2023-01-13T22:17:56.525Z,7.88
2023-01-13T22:20:23.691Z,9.85
2023-01-13T22:22:50.625Z,9.70
2023-01-13T22:25:20.228Z,11.68
2023-01-13T22:27:48.451Z,10.13
2023-01-13T22:30:18.920Z,10.82
2023-01-13T22:32:46.488Z,11.20
2023-01-13T22:35:15.636Z,12.13
2023-01-13T22:37:42.735Z,10.23
2023-01-13T22:40:12.114Z,11.02
2023-01-13T22:42:40.983Z,11.77
2023-01-13T22:45:11.847Z,14.07
2023-01-13T22:47:38.943Z,8.88
2023-01-13T22:50:07.412Z,10.30
2023-01-13T22:52:35.326Z,10.13
2023-01-13T22:55:02.754Z,8.88
2023-01-13T22:57:35.928Z,9.10
2023-01-13T23:00:06.389Z,13.18
2023-01-13T23:02:34.653Z,11.55
2023-01-13T23:05:01.977Z,9.48
2023-01-13T23:07:29.162Z,9.77
2023-01-13T23:09:56.333Z,9.15
2023-01-13T23:12:23.248Z,10.05
2023-01-13T23:14:50.450Z,10.00
2023-01-13T23:17:17.333Z,9.43
2023-01-13T23:19:44.508Z,9.43
2023-01-13T23:22:13.120Z,10.35
2023-01-13T23:24:40.350Z,11.10
2023-01-13T23:27:07.256Z,10.57
2023-01-13T23:29:34.439Z,7.63
2023-01-13T23:32:01.323Z,9.52
2023-01-13T23:34:28.659Z,11.23
2023-01-13T23:36:55.516Z,9.35
2023-01-13T23:39:24.359Z,9.68
2023-01-13T23:41:51.576Z,14.43
2023-01-13T23:44:18.740Z,12.10
2023-01-13T23:46:45.704Z,12.38
2023-01-13T23:49:12.882Z,12.98
2023-01-13T23:51:39.959Z,10.98
2023-01-13T23:54:07.216Z,11.05
2023-01-13T23:56:39.164Z,10.50
2023-01-13T23:59:06.709Z,11.32
